createdAt,value
2023-01-17T00:02:13.849Z,14.30
2023-01-17T00:05:37.921Z,17.00
2023-01-17T00:09:01.571Z,10.00
2023-01-17T00:12:08.749Z,6.90
2023-01-17T00:15:16.869Z,6.70
2023-01-17T00:18:23.107Z,13.50
2023-01-17T00:21:46.738Z,23.80
2023-01-17T00:25:10.300Z,21.60
2023-01-17T00:28:15.292Z,18.70
2023-01-17T00:31:20.298Z,15.20
2023-01-17T00:34:25.266Z,13.90
2023-01-17T00:37:30.227Z,15.10
2023-01-17T00:40:36.026Z,10.80
2023-01-17T00:43:59.795Z,15.50
2023-01-17T00:47:23.329Z,9.00
2023-01-17T00:50:47.352Z,12.40
2023-01-17T00:54:10.831Z,15.00
2023-01-17T00:57:34.595Z,15.50
2023-01-17T01:00:58.207Z,18.00
2023-01-17T01:04:22.339Z,29.90
2023-01-17T01:07:46.117Z,25.40
2023-01-17T01:11:09.992Z,19.10
2023-01-17T01:14:33.466Z,18.10
2023-01-17T01:17:57.233Z,19.90
2023-01-17T01:21:24.804Z,14.10
2023-01-17T01:24:49.095Z,15.20
2023-01-17T01:28:21.051Z,12.40
2023-01-17T01:31:44.861Z,19.50
2023-01-17T01:34:51.214Z,16.80
2023-01-17T01:41:01.487Z,23.30
2023-01-17T01:44:21.387Z,11.40
2023-01-17T01:47:32.144Z,10.70
2023-01-17T01:50:39.087Z,17.50
2023-01-17T01:53:53.996Z,17.50
2023-01-17T01:57:02.120Z,14.90
2023-01-17T02:00:15.827Z,13.70
2023-01-17T02:03:27.340Z,12.40
2023-01-17T02:06:36.864Z,13.50
2023-01-17T02:09:42.952Z,14.50
2023-01-17T02:12:50.654Z,11.90
2023-01-17T02:16:04.421Z,13.80
2023-01-17T02:19:37.469Z,16.60
2023-01-17T02:23:28.388Z,16.20
2023-01-17T02:27:01.219Z,14.20
2023-01-17T02:30:30.951Z,14.70
2023-01-17T02:33:46.887Z,12.50
2023-01-17T02:36:57.885Z,14.00
2023-01-17T02:40:10.175Z,11.40
2023-01-17T02:43:18.135Z,11.80
2023-01-17T02:46:24.384Z,11.80
2023-01-17T02:49:32.939Z,11.60
2023-01-17T02:52:51.378Z,12.70
2023-01-17T02:56:07.309Z,12.10
2023-01-17T02:59:22.339Z,9.80
2023-01-17T03:02:34.571Z,11.00
2023-01-17T03:05:45.695Z,10.30
2023-01-17T03:08:54.606Z,9.90
2023-01-17T03:12:01.170Z,8.90
2023-01-17T03:15:13.106Z,12.60
2023-01-17T03:18:19.734Z,9.60
2023-01-17T03:21:26.411Z,7.20
2023-01-17T03:24:32.688Z,16.20
2023-01-17T03:27:39.011Z,18.30
2023-01-17T03:33:49.949Z,86.70
2023-01-17T03:36:56.420Z,14.00
2023-01-17T03:40:02.654Z,11.30
2023-01-17T03:43:09.096Z,50.90
2023-01-17T03:46:23.935Z,12.00
2023-01-17T03:49:30.232Z,9.70
2023-01-17T03:55:40.773Z,9.60
2023-01-17T03:58:47.756Z,8.70
2023-01-17T04:01:54.107Z,8.60
2023-01-17T04:08:06.781Z,8.70
2023-01-17T04:11:12.987Z,6.70
2023-01-17T04:14:19.199Z,8.00
2023-01-17T04:17:26.096Z,6.40
2023-01-17T04:20:35.761Z,7.50
2023-01-17T04:23:42.026Z,7.10
2023-01-17T04:26:48.243Z,6.60
2023-01-17T04:29:54.487Z,8.50
2023-01-17T04:36:06.372Z,7.70
2023-01-17T04:39:12.638Z,6.50
2023-01-17T04:42:18.840Z,5.50
2023-01-17T04:45:25.157Z,8.30
2023-01-17T04:51:37.979Z,8.20
2023-01-17T04:54:44.236Z,8.80
2023-01-17T04:57:50.462Z,7.50
2023-01-17T05:00:57.658Z,6.40
2023-01-17T05:04:03.950Z,7.50
2023-01-17T05:10:15.317Z,4.00
2023-01-17T05:13:21.840Z,6.20
2023-01-17T05:16:28.488Z,8.40
2023-01-17T05:19:34.738Z,7.00
2023-01-17T05:22:40.956Z,5.00
2023-01-17T05:25:47.219Z,7.70
2023-01-17T05:31:57.896Z,5.70
2023-01-17T05:35:04.124Z,5.80
2023-01-17T05:38:10.501Z,4.90
2023-01-17T05:44:21.268Z,5.50
2023-01-17T05:47:27.501Z,10.30
2023-01-17T05:50:35.374Z,8.30
2023-01-17T05:53:41.640Z,6.70
2023-01-17T05:56:47.935Z,7.10
2023-01-17T06:03:00.023Z,8.20
2023-01-17T06:06:06.472Z,8.40
2023-01-17T06:12:18.150Z,7.30
2023-01-17T06:15:24.351Z,7.40
2023-01-17T06:18:30.951Z,11.00
2023-01-17T06:21:37.345Z,12.00
2023-01-17T06:27:48.052Z,14.80
2023-01-17T06:30:54.370Z,18.50
2023-01-17T06:37:05.155Z,26.90
2023-01-17T06:40:14.034Z,24.00
2023-01-17T06:43:20.255Z,19.30
2023-01-17T06:46:26.472Z,18.50
2023-01-17T06:49:32.698Z,14.90
2023-01-17T06:52:39.066Z,12.60
2023-01-17T06:58:53.450Z,12.00
2023-01-17T07:01:59.811Z,12.90
2023-01-17T07:05:06.597Z,9.90
2023-01-17T07:08:12.874Z,10.80
2023-01-17T07:14:23.666Z,10.70
2023-01-17T07:17:29.932Z,11.60
2023-01-17T07:23:40.947Z,15.30
2023-01-17T07:29:54.076Z,16.50
2023-01-17T07:33:01.419Z,16.60
2023-01-17T07:36:09.843Z,15.90
2023-01-17T07:39:16.271Z,25.70
2023-01-17T07:42:24.044Z,23.90
2023-01-17T07:45:30.988Z,23.70
2023-01-17T07:48:37.363Z,25.50
2023-01-17T07:54:48.140Z,18.60
2023-01-17T07:57:54.571Z,20.70
2023-01-17T08:01:06.380Z,19.60
2023-01-17T08:04:14.198Z,13.40
2023-01-17T08:07:20.518Z,14.90
2023-01-17T08:13:31.633Z,13.20
2023-01-17T08:19:44.859Z,9.60
2023-01-17T08:22:53.123Z,9.90
2023-01-17T08:26:03.303Z,8.90
2023-01-17T08:29:10.322Z,9.40
2023-01-17T08:32:16.937Z,8.90
2023-01-17T08:35:23.206Z,10.90
2023-01-17T08:38:29.573Z,10.70
2023-01-17T08:44:40.406Z,9.60
2023-01-17T08:50:51.292Z,9.90
2023-01-17T08:57:03.431Z,8.70
2023-01-17T09:00:12.437Z,9.00
2023-01-17T09:03:18.966Z,8.40
2023-01-17T09:06:25.227Z,10.20
2023-01-17T09:09:31.379Z,10.30
2023-01-17T09:12:39.031Z,12.60
2023-01-17T09:15:45.279Z,9.60
2023-01-17T09:18:54.781Z,9.40
2023-01-17T09:22:01.035Z,7.80
2023-01-17T09:25:08.691Z,9.30
2023-01-17T09:28:14.808Z,9.30
2023-01-17T09:31:22.743Z,8.70
2023-01-17T09:34:30.667Z,9.90
2023-01-17T09:37:37.007Z,8.40
2023-01-17T09:43:55.166Z,7.50
2023-01-17T09:47:06.117Z,5.30
2023-01-17T09:50:26.768Z,5.70
2023-01-17T09:53:36.082Z,6.10
2023-01-17T09:56:49.591Z,6.50
2023-01-17T10:00:04.327Z,5.80
2023-01-17T10:03:38.590Z,7.80
2023-01-17T10:07:02.740Z,7.10
2023-01-17T10:10:29.596Z,7.40
2023-01-17T10:13:44.593Z,7.40
2023-01-17T10:16:56.702Z,6.30
2023-01-17T10:20:18.049Z,6.50
2023-01-17T10:24:04.225Z,7.30
2023-01-17T10:27:17.350Z,8.20
2023-01-17T10:30:28.476Z,7.30
2023-01-17T10:33:41.706Z,8.20
2023-01-17T10:36:51.459Z,6.60
2023-01-17T10:40:03.083Z,7.30
2023-01-17T10:43:19.303Z,8.50
2023-01-17T10:46:31.565Z,8.90
2023-01-17T10:49:41.316Z,7.50
2023-01-17T10:52:53.463Z,6.90
2023-01-17T10:55:59.851Z,8.50
2023-01-17T11:02:25.252Z,7.80
2023-01-17T11:05:34.051Z,8.60
2023-01-17T11:08:53.829Z,7.30
2023-01-17T11:12:00.213Z,7.20
2023-01-17T11:18:19.933Z,6.80
2023-01-17T11:21:27.755Z,7.90
2023-01-17T11:24:37.601Z,7.80
2023-01-17T11:27:45.095Z,7.10
2023-01-17T11:30:56.811Z,6.30
2023-01-17T11:34:19.933Z,9.50
2023-01-17T11:37:29.285Z,8.20
2023-01-17T11:40:41.128Z,7.70
2023-01-17T11:43:55.169Z,9.00
2023-01-17T11:47:19.423Z,6.30
2023-01-17T11:50:29.669Z,8.00
2023-01-17T11:53:39.261Z,5.80
2023-01-17T11:56:46.423Z,7.50
2023-01-17T11:59:57.893Z,8.00
2023-01-17T12:03:23.906Z,7.50
2023-01-17T12:06:56.519Z,8.50
2023-01-17T12:10:13.408Z,8.30
2023-01-17T12:13:49.491Z,7.90
2023-01-17T12:17:14.130Z,8.30
2023-01-17T12:20:28.639Z,9.60
2023-01-17T12:23:52.072Z,9.70
2023-01-17T12:27:08.018Z,7.90
2023-01-17T12:30:30.946Z,8.60
2023-01-17T12:33:47.778Z,8.10
2023-01-17T12:36:57.932Z,7.40
2023-01-17T12:40:08.859Z,8.80
2023-01-17T12:43:21.345Z,10.90
2023-01-17T12:46:33.008Z,8.40
2023-01-17T12:49:47.562Z,8.50
2023-01-17T12:53:00.489Z,9.20
2023-01-17T12:56:13.528Z,10.00
2023-01-17T12:59:27.056Z,11.60
2023-01-17T13:02:38.966Z,10.30
2023-01-17T13:05:48.647Z,10.60
2023-01-17T13:08:57.186Z,10.10
2023-01-17T13:12:08.222Z,10.60
2023-01-17T13:15:27.242Z,8.90
2023-01-17T13:18:33.529Z,9.20
2023-01-17T13:24:52.187Z,9.40
2023-01-17T13:28:15.285Z,9.50
2023-01-17T13:31:30.137Z,11.40
2023-01-17T13:35:00.275Z,10.00
2023-01-17T13:38:29.245Z,10.80
2023-01-17T13:41:51.551Z,10.80
2023-01-17T13:44:59.157Z,9.10
2023-01-17T13:48:34.352Z,9.20
2023-01-17T13:52:13.276Z,10.80
2023-01-17T13:55:46.167Z,12.30
2023-01-17T13:59:06.992Z,9.60
2023-01-17T14:02:40.229Z,11.10
2023-01-17T14:05:59.011Z,11.80
2023-01-17T14:09:12.081Z,9.70
2023-01-17T14:12:32.789Z,11.50
2023-01-17T14:15:51.413Z,9.70
2023-01-17T14:18:58.626Z,11.10
2023-01-17T14:22:24.934Z,8.30
2023-01-17T14:25:39.677Z,9.60
2023-01-17T14:28:45.953Z,9.50
2023-01-17T14:34:57.480Z,9.90
2023-01-17T14:38:05.806Z,9.40
2023-01-17T14:41:19.969Z,9.30
2023-01-17T14:44:26.233Z,10.20
2023-01-17T14:47:36.780Z,10.10
2023-01-17T14:50:45.008Z,10.80
2023-01-17T14:53:57.712Z,10.90
2023-01-17T14:57:30.844Z,10.10
2023-01-17T15:00:42.631Z,11.20
2023-01-17T15:03:51.254Z,11.40
2023-01-17T15:06:58.922Z,14.20
2023-01-17T15:10:06.122Z,11.40
2023-01-17T15:13:14.958Z,11.00
2023-01-17T15:16:28.433Z,12.60
2023-01-17T15:19:45.005Z,11.70
2023-01-17T15:22:51.347Z,11.90
2023-01-17T15:29:06.854Z,10.70
2023-01-17T15:32:20.923Z,10.90
2023-01-17T15:35:28.344Z,11.60
2023-01-17T15:38:39.003Z,11.60
2023-01-17T15:41:47.388Z,11.10
2023-01-17T15:44:57.994Z,10.00
2023-01-17T15:48:34.603Z,10.90
2023-01-17T15:51:46.693Z,11.40
2023-01-17T15:54:54.716Z,12.20
2023-01-17T15:58:01.354Z,10.30
2023-01-17T16:01:18.133Z,11.70
2023-01-17T16:04:34.309Z,11.90
2023-01-17T16:07:40.527Z,13.40
2023-01-17T16:10:47.469Z,11.60
2023-01-17T16:13:54.081Z,12.10
2023-01-17T16:17:01.639Z,12.50
2023-01-17T16:20:16.168Z,25.10
2023-01-17T16:23:22.479Z,36.10
2023-01-17T16:29:35.660Z,65.90
2023-01-17T16:32:41.840Z,47.10
2023-01-17T16:35:48.248Z,43.20
2023-01-17T16:38:54.768Z,37.20
2023-01-17T16:42:03.498Z,28.10
2023-01-17T16:45:11.130Z,60.20
2023-01-17T16:48:19.323Z,85.20
2023-01-17T16:51:25.848Z,82.40
2023-01-17T16:54:32.085Z,70.60
2023-01-17T16:57:38.336Z,65.20
2023-01-17T17:03:49.561Z,43.10
2023-01-17T17:06:55.640Z,48.30
2023-01-17T17:10:01.951Z,50.50
2023-01-17T17:16:18.496Z,48.60
2023-01-17T17:19:25.261Z,47.30
2023-01-17T17:22:31.689Z,43.30
2023-01-17T17:28:42.491Z,31.40
2023-01-17T17:31:48.727Z,20.10
2023-01-17T17:34:54.941Z,18.00
2023-01-17T17:38:01.284Z,16.10
2023-01-17T17:44:17.579Z,27.30
2023-01-17T17:47:24.464Z,36.50
2023-01-17T17:50:31.057Z,48.30
2023-01-17T17:53:37.056Z,65.00
2023-01-17T17:56:46.535Z,64.90
2023-01-17T17:59:52.968Z,56.40
2023-01-17T18:02:58.925Z,52.10
2023-01-17T18:06:07.581Z,56.10
2023-01-17T18:09:14.676Z,62.60
2023-01-17T18:12:20.957Z,71.90
2023-01-17T18:15:27.239Z,43.20
2023-01-17T18:21:40.211Z,159.60
2023-01-17T18:24:46.303Z,66.80
2023-01-17T18:27:52.739Z,71.20
2023-01-17T18:30:59.107Z,54.50
2023-01-17T18:34:08.574Z,65.90
2023-01-17T18:37:14.892Z,71.00
2023-01-17T18:43:28.893Z,65.80
2023-01-17T18:46:35.565Z,36.20
2023-01-17T18:49:41.757Z,25.40
2023-01-17T18:52:47.740Z,31.50
2023-01-17T18:55:57.594Z,49.90
2023-01-17T18:59:05.895Z,56.70
2023-01-17T19:02:13.035Z,92.60
2023-01-17T19:05:21.689Z,82.70
2023-01-17T19:08:27.650Z,84.00
2023-01-17T19:11:34.256Z,83.00
2023-01-17T19:14:40.297Z,85.20
2023-01-17T19:17:46.246Z,87.40
2023-01-17T19:20:52.198Z,107.10
2023-01-17T19:23:59.420Z,99.10
2023-01-17T19:27:07.213Z,95.10
2023-01-17T19:30:15.157Z,96.90
2023-01-17T19:33:21.562Z,51.80
2023-01-17T19:39:33.660Z,64.50
2023-01-17T19:42:40.733Z,38.70
2023-01-17T19:45:56.191Z,35.90
2023-01-17T19:49:02.726Z,19.20
2023-01-17T19:52:09.048Z,68.10
2023-01-17T19:58:20.028Z,69.40
2023-01-17T20:04:34.634Z,89.30
2023-01-17T20:10:46.741Z,33.30
2023-01-17T20:13:57.630Z,37.50
2023-01-17T20:17:04.725Z,50.30
2023-01-17T20:20:13.632Z,56.10
2023-01-17T20:23:19.809Z,50.00
2023-01-17T20:26:34.886Z,26.90
2023-01-17T20:29:41.455Z,46.70
2023-01-17T20:32:47.920Z,16.50
2023-01-17T20:36:09.090Z,31.50
2023-01-17T20:39:18.206Z,17.20
2023-01-17T20:42:24.378Z,12.40
2023-01-17T20:45:30.690Z,12.30
2023-01-17T20:51:44.442Z,13.90
2023-01-17T20:54:51.863Z,11.40
2023-01-17T20:57:59.876Z,11.10
2023-01-17T21:01:06.932Z,11.80
2023-01-17T21:04:14.790Z,15.00
2023-01-17T21:07:21.245Z,24.20
2023-01-17T21:10:29.475Z,23.40
2023-01-17T21:13:35.977Z,35.60
2023-01-17T21:16:42.415Z,14.80
2023-01-17T21:19:48.647Z,15.80
2023-01-17T21:22:54.975Z,16.20
2023-01-17T21:29:05.895Z,42.70
2023-01-17T21:35:16.819Z,24.00
2023-01-17T21:38:23.118Z,18.50
2023-01-17T21:44:36.474Z,13.20
2023-01-17T21:47:44.783Z,10.80
2023-01-17T21:50:52.786Z,13.00
2023-01-17T21:53:59.173Z,11.70
2023-01-17T22:00:27.320Z,11.70
2023-01-17T22:03:33.630Z,10.60
2023-01-17T22:09:45.505Z,10.30
2023-01-17T22:16:03.631Z,11.40
2023-01-17T22:19:09.882Z,9.80
2023-01-17T22:22:16.343Z,9.60
2023-01-17T22:25:23.370Z,9.00
2023-01-17T22:28:32.694Z,9.50
2023-01-17T22:31:39.094Z,9.50
2023-01-17T22:37:49.939Z,9.10
2023-01-17T22:44:03.582Z,9.10
2023-01-17T22:47:09.952Z,8.30
2023-01-17T22:53:20.596Z,11.20
2023-01-17T22:56:29.261Z,9.20
2023-01-17T22:59:35.726Z,8.40
2023-01-17T23:02:42.766Z,8.30
2023-01-17T23:05:49.073Z,10.30
2023-01-17T23:08:57.366Z,10.30
2023-01-17T23:12:03.510Z,11.40
2023-01-17T23:15:28.359Z,34.90
2023-01-17T23:18:52.092Z,14.70
2023-01-17T23:22:19.392Z,10.30
2023-01-17T23:25:25.765Z,10.10
2023-01-17T23:28:31.988Z,11.20
2023-01-17T23:31:39.499Z,11.20
2023-01-17T23:34:47.771Z,11.90
2023-01-17T23:38:11.520Z,11.00
2023-01-17T23:41:34.871Z,11.70
2023-01-17T23:44:40.957Z,11.70
2023-01-17T23:47:47.387Z,11.10
2023-01-17T23:50:57.764Z,12.40
2023-01-17T23:54:06.299Z,11.50
2023-01-17T23:57:12.542Z,11.50
